TVF4035 LICJ-LFLL
Flight info
| Callsign | TVF4035 |
|---|---|
| Flight time | 1h 43m |
| Altitude | 36000 |
| Route | GIANO DCT RONAB DCT KONER DCT LAGEN DCT TOP/N0358F240 DCT RONOP DCT GIGUS Z40 AMVAR |
| Aircraft | B738/M-SDE2E3FGHIRWXY/LB1 |
Departure
| Time | 2026-04-27 17:32 |
|---|---|
| Airport | Falcone–Borsellino Airport (LICJ) |
Arrival
| Time | 2026-04-27 19:15 |
|---|---|
| Airport | Lyon Saint-Exupéry Airport (LFLL) |
| Time | Latitude | Longitude | Altitude | Speed | Heading |
|---|---|---|---|---|---|
| 2026-04-27 16:39 | 38.18520 | 13.10564 | 48 ft | 0 kts | 338° |
| 2026-04-27 17:16 | 38.18519 | 13.10565 | 48 ft | 2 kts | 337° |
| 2026-04-27 17:16 | 38.18496 | 13.10579 | 45 ft | 4 kts | 323° |
| 2026-04-27 17:16 | 38.18478 | 13.10603 | 44 ft | 4 kts | 293° |
| 2026-04-27 17:17 | 38.18476 | 13.10631 | 44 ft | 2 kts | 248° |
| 2026-04-27 17:17 | 38.18478 | 13.10637 | 44 ft | 1 kts | 248° |
| 2026-04-27 17:22 | 38.18478 | 13.10636 | 49 ft | 1 kts | 248° |
| 2026-04-27 17:22 | 38.18470 | 13.10610 | 48 ft | 6 kts | 248° |
| 2026-04-27 17:23 | 38.18447 | 13.10545 | 45 ft | 9 kts | 238° |
| 2026-04-27 17:23 | 38.18396 | 13.10504 | 48 ft | 9 kts | 201° |
| 2026-04-27 17:23 | 38.18341 | 13.10475 | 46 ft | 8 kts | 211° |
| 2026-04-27 17:23 | 38.18309 | 13.10415 | 48 ft | 8 kts | 246° |
| 2026-04-27 17:24 | 38.18287 | 13.10348 | 45 ft | 8 kts | 247° |
| 2026-04-27 17:24 | 38.18265 | 13.10283 | 47 ft | 8 kts | 247° |
| 2026-04-27 17:24 | 38.18244 | 13.10219 | 21 ft | 8 kts | 246° |
| 2026-04-27 17:24 | 38.18222 | 13.10156 | 45 ft | 8 kts | 246° |
| 2026-04-27 17:25 | 38.18197 | 13.10082 | 45 ft | 10 kts | 246° |
| 2026-04-27 17:25 | 38.18169 | 13.09996 | 43 ft | 11 kts | 248° |
| 2026-04-27 17:25 | 38.18138 | 13.09905 | 42 ft | 11 kts | 246° |
| 2026-04-27 17:25 | 38.18078 | 13.09868 | 43 ft | 10 kts | 175° |
| 2026-04-27 17:26 | 38.18027 | 13.09814 | 44 ft | 10 kts | 249° |
| 2026-04-27 17:26 | 38.18001 | 13.09733 | 40 ft | 10 kts | 248° |
| 2026-04-27 17:26 | 38.17975 | 13.09654 | 42 ft | 10 kts | 247° |
| 2026-04-27 17:26 | 38.17949 | 13.09577 | 41 ft | 9 kts | 247° |
| 2026-04-27 17:27 | 38.17923 | 13.09502 | 41 ft | 9 kts | 246° |
| 2026-04-27 17:27 | 38.17899 | 13.09429 | 40 ft | 9 kts | 247° |
| 2026-04-27 17:27 | 38.17875 | 13.09357 | 40 ft | 9 kts | 246° |
| 2026-04-27 17:27 | 38.17851 | 13.09287 | 42 ft | 8 kts | 247° |
| 2026-04-27 17:28 | 38.17829 | 13.09221 | 42 ft | 8 kts | 247° |
| 2026-04-27 17:28 | 38.17806 | 13.09152 | 41 ft | 9 kts | 246° |
| 2026-04-27 17:28 | 38.17758 | 13.09006 | 41 ft | 9 kts | 243° |
| 2026-04-27 17:29 | 38.17725 | 13.08943 | 41 ft | 8 kts | 227° |
| 2026-04-27 17:29 | 38.17679 | 13.08896 | 41 ft | 8 kts | 217° |
| 2026-04-27 17:29 | 38.17634 | 13.08853 | 41 ft | 8 kts | 216° |
| 2026-04-27 17:29 | 38.17590 | 13.08812 | 41 ft | 8 kts | 216° |
| 2026-04-27 17:30 | 38.17545 | 13.08770 | 41 ft | 8 kts | 216° |
| 2026-04-27 17:30 | 38.17461 | 13.08753 | 41 ft | 4 kts | 101° |
| 2026-04-27 17:30 | 38.17475 | 13.08787 | 39 ft | 4 kts | 58° |
| 2026-04-27 17:31 | 38.17488 | 13.08821 | 41 ft | 0 kts | 68° |
| 2026-04-27 17:31 | 38.17535 | 13.08962 | 41 ft | 33 kts | 66° |
| 2026-04-27 17:31 | 38.17713 | 13.09493 | 45 ft | 100 kts | 66° |
| 2026-04-27 17:32 | 38.18071 | 13.10554 | 93 ft | 154 kts | 67° |
| 2026-04-27 17:32 | 38.18794 | 13.12755 | 1219 ft | 166 kts | 68° |
| 2026-04-27 17:32 | 38.19409 | 13.14582 | 2184 ft | 179 kts | 66° |
| 2026-04-27 17:33 | 38.19762 | 13.15604 | 2361 ft | 201 kts | 66° |
| 2026-04-27 17:33 | 38.20360 | 13.17334 | 2573 ft | 226 kts | 66° |
| 2026-04-27 17:33 | 38.21119 | 13.19162 | 2839 ft | 248 kts | 50° |
| 2026-04-27 17:33 | 38.22521 | 13.20537 | 3358 ft | 262 kts | 27° |
| 2026-04-27 17:34 | 38.24199 | 13.21492 | 4170 ft | 266 kts | 22° |
| 2026-04-27 17:34 | 38.25923 | 13.22364 | 5021 ft | 269 kts | 21° |
| 2026-04-27 17:34 | 38.27678 | 13.23247 | 5832 ft | 273 kts | 21° |
| 2026-04-27 17:34 | 38.29447 | 13.24151 | 6648 ft | 276 kts | 22° |
| 2026-04-27 17:35 | 38.31233 | 13.25080 | 7421 ft | 279 kts | 22° |
| 2026-04-27 17:35 | 38.33036 | 13.26030 | 8216 ft | 282 kts | 22° |
| 2026-04-27 17:35 | 38.34858 | 13.26997 | 8991 ft | 285 kts | 22° |
| 2026-04-27 17:35 | 38.36698 | 13.27978 | 9784 ft | 288 kts | 22° |
| 2026-04-27 17:36 | 38.38573 | 13.28944 | 10445 ft | 295 kts | 16° |
| 2026-04-27 17:36 | 38.40680 | 13.29175 | 10617 ft | 317 kts | 349° |
| 2026-04-27 17:36 | 38.42736 | 13.28025 | 10915 ft | 333 kts | 320° |
| 2026-04-27 17:36 | 38.44217 | 13.25748 | 11558 ft | 337 kts | 303° |
| 2026-04-27 17:37 | 38.45506 | 13.23226 | 12310 ft | 340 kts | 302° |
| 2026-04-27 17:37 | 38.46797 | 13.20685 | 13054 ft | 344 kts | 303° |
| 2026-04-27 17:37 | 38.48129 | 13.18127 | 13804 ft | 348 kts | 303° |
| 2026-04-27 17:37 | 38.49490 | 13.15561 | 14496 ft | 352 kts | 304° |
| 2026-04-27 17:38 | 38.50857 | 13.13001 | 15199 ft | 355 kts | 304° |
| 2026-04-27 17:38 | 38.52255 | 13.10386 | 15913 ft | 358 kts | 304° |
| 2026-04-27 17:38 | 38.53666 | 13.07742 | 16602 ft | 363 kts | 304° |
| 2026-04-27 17:38 | 38.55094 | 13.05065 | 17286 ft | 367 kts | 303° |
| 2026-04-27 17:39 | 38.56541 | 13.02348 | 17956 ft | 372 kts | 303° |
| 2026-04-27 17:39 | 38.58000 | 12.99607 | 18606 ft | 376 kts | 303° |
| 2026-04-27 17:39 | 38.59479 | 12.96825 | 19205 ft | 379 kts | 303° |
| 2026-04-27 17:39 | 38.60964 | 12.94029 | 19837 ft | 382 kts | 303° |
| 2026-04-27 17:40 | 38.62459 | 12.91212 | 20467 ft | 384 kts | 303° |
| 2026-04-27 17:40 | 38.63964 | 12.88374 | 21054 ft | 387 kts | 303° |
| 2026-04-27 17:40 | 38.65484 | 12.85504 | 21633 ft | 391 kts | 303° |
| 2026-04-27 17:40 | 38.67017 | 12.82608 | 22199 ft | 394 kts | 303° |
| 2026-04-27 17:41 | 38.68560 | 12.79690 | 22760 ft | 398 kts | 303° |
| 2026-04-27 17:41 | 38.70115 | 12.76746 | 23322 ft | 401 kts | 303° |
| 2026-04-27 17:41 | 38.71684 | 12.73774 | 23840 ft | 404 kts | 303° |
| 2026-04-27 17:41 | 38.73262 | 12.70781 | 24297 ft | 407 kts | 303° |
| 2026-04-27 17:42 | 38.74851 | 12.67765 | 24780 ft | 409 kts | 303° |
| 2026-04-27 17:42 | 38.76444 | 12.64739 | 25244 ft | 411 kts | 303° |
| 2026-04-27 17:42 | 38.78046 | 12.61692 | 25696 ft | 413 kts | 303° |
| 2026-04-27 17:42 | 38.79656 | 12.58627 | 26151 ft | 415 kts | 303° |
| 2026-04-27 17:43 | 38.81269 | 12.55553 | 26610 ft | 417 kts | 303° |
| 2026-04-27 17:43 | 38.82873 | 12.52495 | 27048 ft | 419 kts | 303° |
| 2026-04-27 17:43 | 38.84521 | 12.49351 | 27488 ft | 421 kts | 303° |
| 2026-04-27 17:43 | 38.86235 | 12.46297 | 27883 ft | 424 kts | 311° |
| 2026-04-27 17:44 | 38.88510 | 12.43876 | 28260 ft | 429 kts | 329° |
| 2026-04-27 17:44 | 38.91175 | 12.42241 | 28695 ft | 431 kts | 335° |
| 2026-04-27 17:44 | 38.93944 | 12.40738 | 29090 ft | 433 kts | 336° |
| 2026-04-27 17:44 | 38.96743 | 12.39258 | 29444 ft | 436 kts | 336° |
| 2026-04-27 17:45 | 38.99551 | 12.37773 | 29799 ft | 438 kts | 335° |
| 2026-04-27 17:45 | 39.02377 | 12.36260 | 30152 ft | 440 kts | 335° |
| 2026-04-27 17:45 | 39.05207 | 12.34726 | 30475 ft | 442 kts | 335° |
| 2026-04-27 17:45 | 39.08041 | 12.33176 | 30763 ft | 444 kts | 335° |
| 2026-04-27 17:46 | 39.10883 | 12.31614 | 31100 ft | 444 kts | 335° |
| 2026-04-27 17:46 | 39.13711 | 12.30055 | 31520 ft | 442 kts | 335° |
| 2026-04-27 17:46 | 39.16530 | 12.28498 | 31963 ft | 440 kts | 335° |
| 2026-04-27 17:46 | 39.19332 | 12.26947 | 32357 ft | 439 kts | 335° |
| 2026-04-27 17:47 | 39.22138 | 12.25393 | 32716 ft | 438 kts | 335° |
| 2026-04-27 17:47 | 39.24032 | 12.24343 | 32962 ft | 438 kts | 335° |
| 2026-04-27 17:47 | 39.27728 | 12.22292 | 33467 ft | 436 kts | 335° |
| 2026-04-27 17:47 | 39.30513 | 12.20746 | 33868 ft | 435 kts | 335° |
| 2026-04-27 17:48 | 39.33293 | 12.19202 | 34209 ft | 434 kts | 335° |
| 2026-04-27 17:48 | 39.36068 | 12.17659 | 34482 ft | 434 kts | 335° |
| 2026-04-27 17:48 | 39.38840 | 12.16116 | 34752 ft | 434 kts | 335° |
| 2026-04-27 17:48 | 39.41609 | 12.14574 | 35053 ft | 433 kts | 335° |
| 2026-04-27 17:49 | 39.44370 | 12.13036 | 35354 ft | 432 kts | 335° |
| 2026-04-27 17:49 | 39.47128 | 12.11499 | 35637 ft | 431 kts | 335° |
| 2026-04-27 17:49 | 39.49890 | 12.09957 | 35902 ft | 431 kts | 335° |
| 2026-04-27 17:49 | 39.52641 | 12.08419 | 36124 ft | 432 kts | 335° |
| 2026-04-27 17:50 | 39.55419 | 12.06865 | 36102 ft | 437 kts | 335° |
| 2026-04-27 17:50 | 39.63757 | 12.02193 | 36101 ft | 430 kts | 335° |
| 2026-04-27 17:51 | 39.69233 | 11.99118 | 36112 ft | 428 kts | 335° |
| 2026-04-27 17:51 | 39.74651 | 11.96070 | 36107 ft | 421 kts | 335° |
| 2026-04-27 17:52 | 39.80020 | 11.93043 | 36117 ft | 420 kts | 335° |
| 2026-04-27 17:52 | 39.85379 | 11.90018 | 36115 ft | 420 kts | 335° |
| 2026-04-27 17:53 | 39.90711 | 11.86911 | 36108 ft | 420 kts | 334° |
| 2026-04-27 17:53 | 39.95995 | 11.83659 | 36115 ft | 420 kts | 333° |
| 2026-04-27 17:54 | 40.01279 | 11.80389 | 36114 ft | 420 kts | 333° |
| 2026-04-27 17:54 | 40.06572 | 11.77126 | 36114 ft | 421 kts | 333° |
| 2026-04-27 17:55 | 40.11876 | 11.73862 | 36110 ft | 422 kts | 333° |
| 2026-04-27 17:55 | 40.17182 | 11.70596 | 36113 ft | 422 kts | 333° |
| 2026-04-27 17:56 | 40.22498 | 11.67317 | 36111 ft | 422 kts | 333° |
| 2026-04-27 17:56 | 40.27816 | 11.64031 | 36109 ft | 423 kts | 333° |
| 2026-04-27 17:57 | 40.33126 | 11.60745 | 36123 ft | 423 kts | 333° |
| 2026-04-27 17:57 | 40.38446 | 11.57445 | 36113 ft | 423 kts | 333° |
| 2026-04-27 17:58 | 40.43760 | 11.54145 | 36109 ft | 422 kts | 333° |
| 2026-04-27 17:58 | 40.49031 | 11.50865 | 36109 ft | 422 kts | 333° |
| 2026-04-27 17:59 | 40.54363 | 11.47541 | 36109 ft | 421 kts | 333° |
| 2026-04-27 17:59 | 40.59651 | 11.44240 | 36107 ft | 420 kts | 333° |
| 2026-04-27 18:00 | 40.64892 | 11.40962 | 36109 ft | 420 kts | 333° |
| 2026-04-27 18:00 | 40.70193 | 11.37640 | 36108 ft | 419 kts | 333° |
| 2026-04-27 18:01 | 40.75422 | 11.34358 | 36110 ft | 419 kts | 333° |
| 2026-04-27 18:01 | 40.80677 | 11.31053 | 36109 ft | 418 kts | 333° |
| 2026-04-27 18:02 | 40.85927 | 11.27745 | 36109 ft | 418 kts | 333° |
| 2026-04-27 18:02 | 40.91170 | 11.24437 | 36109 ft | 418 kts | 333° |
| 2026-04-27 18:03 | 40.96418 | 11.21119 | 36108 ft | 418 kts | 333° |
| 2026-04-27 18:03 | 41.01656 | 11.17802 | 36106 ft | 418 kts | 333° |
| 2026-04-27 18:04 | 41.06894 | 11.14479 | 36112 ft | 417 kts | 333° |
| 2026-04-27 18:04 | 41.12133 | 11.11149 | 36117 ft | 417 kts | 333° |
| 2026-04-27 18:05 | 41.17372 | 11.07814 | 36113 ft | 418 kts | 333° |
| 2026-04-27 18:05 | 41.22607 | 11.04475 | 36109 ft | 418 kts | 333° |
| 2026-04-27 18:06 | 41.27851 | 11.01124 | 36115 ft | 418 kts | 333° |
| 2026-04-27 18:06 | 41.33094 | 10.97768 | 36113 ft | 418 kts | 333° |
| 2026-04-27 18:07 | 41.38335 | 10.94407 | 36102 ft | 418 kts | 333° |
| 2026-04-27 18:07 | 41.43578 | 10.91039 | 36095 ft | 418 kts | 333° |
| 2026-04-27 18:08 | 41.48815 | 10.87669 | 36099 ft | 418 kts | 333° |
| 2026-04-27 18:08 | 41.54056 | 10.84290 | 36119 ft | 418 kts | 333° |
| 2026-04-27 18:09 | 41.59259 | 10.80930 | 36106 ft | 418 kts | 333° |
| 2026-04-27 18:09 | 41.64496 | 10.77541 | 36106 ft | 418 kts | 333° |
| 2026-04-27 18:10 | 41.69733 | 10.74146 | 36115 ft | 418 kts | 333° |
| 2026-04-27 18:10 | 41.74965 | 10.70748 | 36117 ft | 418 kts | 333° |
| 2026-04-27 18:11 | 41.80194 | 10.67346 | 36102 ft | 418 kts | 333° |
| 2026-04-27 18:11 | 41.85419 | 10.63941 | 36100 ft | 418 kts | 333° |
| 2026-04-27 18:12 | 41.90645 | 10.60528 | 36111 ft | 418 kts | 333° |
| 2026-04-27 18:12 | 41.95877 | 10.57105 | 36108 ft | 418 kts | 333° |
| 2026-04-27 18:13 | 42.01100 | 10.53682 | 36114 ft | 418 kts | 333° |
| 2026-04-27 18:13 | 42.06324 | 10.50252 | 36109 ft | 418 kts | 333° |
| 2026-04-27 18:14 | 42.11544 | 10.46819 | 36098 ft | 418 kts | 333° |
| 2026-04-27 18:14 | 42.16768 | 10.43376 | 36102 ft | 418 kts | 333° |
| 2026-04-27 18:15 | 42.21995 | 10.39925 | 36111 ft | 418 kts | 334° |
| 2026-04-27 18:15 | 42.27177 | 10.36498 | 36110 ft | 418 kts | 334° |
| 2026-04-27 18:16 | 42.32401 | 10.33035 | 36105 ft | 418 kts | 334° |
| 2026-04-27 18:16 | 42.37628 | 10.29565 | 36094 ft | 419 kts | 334° |
| 2026-04-27 18:17 | 42.42856 | 10.26088 | 36106 ft | 418 kts | 334° |
| 2026-04-27 18:17 | 42.48113 | 10.22585 | 36108 ft | 418 kts | 334° |
| 2026-04-27 18:18 | 42.53330 | 10.19102 | 36103 ft | 418 kts | 334° |
| 2026-04-27 18:18 | 42.58512 | 10.15635 | 36103 ft | 418 kts | 334° |
| 2026-04-27 18:19 | 42.63724 | 10.12143 | 36110 ft | 418 kts | 334° |
| 2026-04-27 18:19 | 42.68931 | 10.08647 | 36104 ft | 417 kts | 333° |
| 2026-04-27 18:20 | 42.74134 | 10.05146 | 36115 ft | 417 kts | 333° |
| 2026-04-27 18:20 | 42.78492 | 10.02210 | 36098 ft | 417 kts | 333° |
| 2026-04-27 18:21 | 42.83682 | 9.98707 | 36103 ft | 416 kts | 333° |
| 2026-04-27 18:21 | 42.88876 | 9.95194 | 36100 ft | 416 kts | 333° |
| 2026-04-27 18:22 | 42.94059 | 9.91682 | 36103 ft | 416 kts | 333° |
| 2026-04-27 18:22 | 42.99203 | 9.88191 | 36111 ft | 416 kts | 333° |
| 2026-04-27 18:23 | 43.04420 | 9.84642 | 36114 ft | 415 kts | 333° |
| 2026-04-27 18:23 | 43.09557 | 9.81142 | 36104 ft | 416 kts | 333° |
| 2026-04-27 18:24 | 43.14728 | 9.77611 | 36108 ft | 415 kts | 334° |
| 2026-04-27 18:24 | 43.19902 | 9.74072 | 36095 ft | 415 kts | 334° |
| 2026-04-27 18:25 | 43.25061 | 9.70537 | 36115 ft | 415 kts | 334° |
| 2026-04-27 18:25 | 43.30226 | 9.66990 | 36101 ft | 415 kts | 334° |
| 2026-04-27 18:26 | 43.35384 | 9.63441 | 36106 ft | 415 kts | 334° |
| 2026-04-27 18:26 | 43.40542 | 9.59885 | 36114 ft | 414 kts | 334° |
| 2026-04-27 18:27 | 43.45613 | 9.56125 | 36095 ft | 414 kts | 324° |
| 2026-04-27 18:27 | 43.50620 | 9.52182 | 36104 ft | 413 kts | 339° |
| 2026-04-27 18:28 | 43.53192 | 9.50453 | 36095 ft | 413 kts | 327° |
| 2026-04-27 18:28 | 43.55502 | 9.48108 | 36122 ft | 413 kts | 321° |
| 2026-04-27 18:28 | 43.59809 | 9.42870 | 36108 ft | 413 kts | 319° |
| 2026-04-27 18:29 | 43.64122 | 9.37601 | 36102 ft | 414 kts | 320° |
| 2026-04-27 18:29 | 43.68473 | 9.32488 | 36114 ft | 414 kts | 321° |
| 2026-04-27 18:30 | 43.72896 | 9.27387 | 36114 ft | 414 kts | 321° |
| 2026-04-27 18:30 | 43.77323 | 9.22298 | 36110 ft | 414 kts | 321° |
| 2026-04-27 18:31 | 43.81757 | 9.17192 | 36117 ft | 414 kts | 321° |
| 2026-04-27 18:31 | 43.86181 | 9.12085 | 36113 ft | 414 kts | 321° |
| 2026-04-27 18:32 | 43.90607 | 9.06963 | 36111 ft | 414 kts | 321° |
| 2026-04-27 18:32 | 43.95030 | 9.01834 | 36103 ft | 414 kts | 321° |
| 2026-04-27 18:33 | 43.99444 | 8.96705 | 36112 ft | 414 kts | 320° |
| 2026-04-27 18:33 | 44.03850 | 8.91575 | 36111 ft | 413 kts | 320° |
| 2026-04-27 18:34 | 44.08252 | 8.86441 | 36095 ft | 413 kts | 320° |
| 2026-04-27 18:34 | 44.12641 | 8.81310 | 36099 ft | 412 kts | 320° |
| 2026-04-27 18:35 | 44.17027 | 8.76172 | 36109 ft | 411 kts | 320° |
| 2026-04-27 18:35 | 44.21373 | 8.71072 | 36097 ft | 409 kts | 320° |
| 2026-04-27 18:36 | 44.25708 | 8.65973 | 36093 ft | 402 kts | 320° |
| 2026-04-27 18:36 | 44.29942 | 8.60983 | 36019 ft | 402 kts | 320° |
| 2026-04-27 18:37 | 44.32080 | 8.58460 | 35712 ft | 399 kts | 320° |
| 2026-04-27 18:37 | 44.34185 | 8.55974 | 35334 ft | 394 kts | 320° |
| 2026-04-27 18:37 | 44.36272 | 8.53506 | 34972 ft | 391 kts | 320° |
| 2026-04-27 18:37 | 44.38333 | 8.51067 | 34589 ft | 388 kts | 320° |
| 2026-04-27 18:38 | 44.40391 | 8.48631 | 34204 ft | 386 kts | 320° |
| 2026-04-27 18:38 | 44.42429 | 8.46218 | 33802 ft | 383 kts | 320° |
| 2026-04-27 18:38 | 44.44452 | 8.43821 | 33397 ft | 380 kts | 320° |
| 2026-04-27 18:38 | 44.46457 | 8.41443 | 33021 ft | 376 kts | 320° |
| 2026-04-27 18:39 | 44.48445 | 8.39083 | 32648 ft | 373 kts | 320° |
| 2026-04-27 18:39 | 44.50418 | 8.36740 | 32272 ft | 370 kts | 320° |
| 2026-04-27 18:39 | 44.52376 | 8.34411 | 31906 ft | 368 kts | 320° |
| 2026-04-27 18:39 | 44.54317 | 8.32100 | 31548 ft | 365 kts | 320° |
| 2026-04-27 18:40 | 44.56247 | 8.29799 | 31190 ft | 363 kts | 320° |
| 2026-04-27 18:40 | 44.58163 | 8.27514 | 30840 ft | 360 kts | 320° |
| 2026-04-27 18:40 | 44.60066 | 8.25242 | 30487 ft | 358 kts | 320° |
| 2026-04-27 18:40 | 44.61980 | 8.22954 | 30135 ft | 356 kts | 320° |
| 2026-04-27 18:41 | 44.63861 | 8.20705 | 29727 ft | 354 kts | 320° |
| 2026-04-27 18:41 | 44.65730 | 8.18468 | 29351 ft | 351 kts | 320° |
| 2026-04-27 18:41 | 44.67581 | 8.16250 | 28979 ft | 348 kts | 319° |
| 2026-04-27 18:41 | 44.69415 | 8.14051 | 28614 ft | 346 kts | 319° |
| 2026-04-27 18:42 | 44.71238 | 8.11863 | 28263 ft | 343 kts | 319° |
| 2026-04-27 18:42 | 44.72433 | 8.10428 | 28018 ft | 341 kts | 319° |
| 2026-04-27 18:42 | 44.74834 | 8.07541 | 27533 ft | 338 kts | 319° |
| 2026-04-27 18:42 | 44.76619 | 8.05394 | 27183 ft | 336 kts | 319° |
| 2026-04-27 18:43 | 44.78386 | 8.03265 | 26830 ft | 334 kts | 319° |
| 2026-04-27 18:43 | 44.80141 | 8.01151 | 26488 ft | 332 kts | 319° |
| 2026-04-27 18:43 | 44.81889 | 7.99041 | 26140 ft | 330 kts | 319° |
| 2026-04-27 18:43 | 44.83628 | 7.96942 | 25802 ft | 328 kts | 319° |
| 2026-04-27 18:44 | 44.85356 | 7.94853 | 25457 ft | 327 kts | 319° |
| 2026-04-27 18:44 | 44.87078 | 7.92772 | 25125 ft | 325 kts | 319° |
| 2026-04-27 18:44 | 44.88815 | 7.90670 | 24781 ft | 324 kts | 319° |
| 2026-04-27 18:44 | 44.90501 | 7.88627 | 24452 ft | 323 kts | 319° |
| 2026-04-27 18:45 | 44.92114 | 7.86437 | 24113 ft | 322 kts | 310° |
| 2026-04-27 18:45 | 44.93410 | 7.83896 | 23935 ft | 317 kts | 300° |
| 2026-04-27 18:45 | 44.94479 | 7.81120 | 23774 ft | 322 kts | 298° |
| 2026-04-27 18:45 | 44.95537 | 7.78257 | 23565 ft | 333 kts | 297° |
| 2026-04-27 18:46 | 44.96611 | 7.75325 | 23372 ft | 338 kts | 297° |
| 2026-04-27 18:46 | 44.97689 | 7.72386 | 23167 ft | 336 kts | 297° |
| 2026-04-27 18:46 | 44.98765 | 7.69466 | 22978 ft | 333 kts | 298° |
| 2026-04-27 18:46 | 44.99832 | 7.66577 | 22793 ft | 330 kts | 298° |
| 2026-04-27 18:47 | 45.00891 | 7.63717 | 22623 ft | 328 kts | 298° |
| 2026-04-27 18:47 | 45.01947 | 7.60867 | 22458 ft | 326 kts | 298° |
| 2026-04-27 18:47 | 45.02998 | 7.58031 | 22296 ft | 325 kts | 297° |
| 2026-04-27 18:47 | 45.04046 | 7.55200 | 22122 ft | 325 kts | 297° |
| 2026-04-27 18:48 | 45.05093 | 7.52370 | 21956 ft | 325 kts | 297° |
| 2026-04-27 18:48 | 45.06141 | 7.49533 | 21850 ft | 325 kts | 297° |
| 2026-04-27 18:48 | 45.07190 | 7.46694 | 21689 ft | 326 kts | 297° |
| 2026-04-27 18:48 | 45.08240 | 7.43848 | 21521 ft | 327 kts | 297° |
| 2026-04-27 18:49 | 45.09291 | 7.40995 | 21350 ft | 327 kts | 297° |
| 2026-04-27 18:49 | 45.10343 | 7.38137 | 21181 ft | 327 kts | 297° |
| 2026-04-27 18:49 | 45.11393 | 7.35281 | 21015 ft | 328 kts | 297° |
| 2026-04-27 18:49 | 45.12444 | 7.32421 | 20836 ft | 327 kts | 297° |
| 2026-04-27 18:50 | 45.13494 | 7.29558 | 20665 ft | 327 kts | 297° |
| 2026-04-27 18:50 | 45.14539 | 7.26708 | 20496 ft | 326 kts | 297° |
| 2026-04-27 18:50 | 45.15582 | 7.23861 | 20313 ft | 325 kts | 297° |
| 2026-04-27 18:50 | 45.16619 | 7.21028 | 20149 ft | 323 kts | 297° |
| 2026-04-27 18:51 | 45.17652 | 7.18202 | 19978 ft | 322 kts | 297° |
| 2026-04-27 18:51 | 45.18673 | 7.15378 | 19801 ft | 321 kts | 295° |
| 2026-04-27 18:51 | 45.19579 | 7.12498 | 19636 ft | 320 kts | 292° |
| 2026-04-27 18:51 | 45.20373 | 7.09748 | 19479 ft | 319 kts | 291° |
| 2026-04-27 18:52 | 45.21221 | 7.06742 | 19294 ft | 317 kts | 291° |
| 2026-04-27 18:52 | 45.22039 | 7.03839 | 19147 ft | 317 kts | 291° |
| 2026-04-27 18:52 | 45.22864 | 7.00929 | 18978 ft | 317 kts | 291° |
| 2026-04-27 18:53 | 45.24518 | 6.95131 | 18648 ft | 317 kts | 291° |
| 2026-04-27 18:53 | 45.25348 | 6.92231 | 18481 ft | 317 kts | 291° |
| 2026-04-27 18:53 | 45.26179 | 6.89328 | 18292 ft | 317 kts | 291° |
| 2026-04-27 18:53 | 45.27009 | 6.86428 | 18112 ft | 316 kts | 291° |
| 2026-04-27 18:54 | 45.27848 | 6.83497 | 17930 ft | 315 kts | 291° |
| 2026-04-27 18:54 | 45.28669 | 6.80623 | 17765 ft | 314 kts | 291° |
| 2026-04-27 18:54 | 45.29477 | 6.77794 | 17596 ft | 313 kts | 291° |
| 2026-04-27 18:54 | 45.30303 | 6.74898 | 17433 ft | 311 kts | 291° |
| 2026-04-27 18:55 | 45.31101 | 6.72097 | 17265 ft | 310 kts | 291° |
| 2026-04-27 18:55 | 45.31910 | 6.69256 | 17107 ft | 309 kts | 291° |
| 2026-04-27 18:55 | 45.32715 | 6.66424 | 16927 ft | 308 kts | 291° |
| 2026-04-27 18:55 | 45.33516 | 6.63604 | 16788 ft | 307 kts | 291° |
| 2026-04-27 18:56 | 45.34313 | 6.60791 | 16616 ft | 307 kts | 291° |
| 2026-04-27 18:56 | 45.35110 | 6.57977 | 16456 ft | 306 kts | 291° |
| 2026-04-27 18:56 | 45.35901 | 6.55185 | 16296 ft | 305 kts | 291° |
| 2026-04-27 18:56 | 45.36692 | 6.52389 | 16131 ft | 304 kts | 291° |
| 2026-04-27 18:57 | 45.37482 | 6.49593 | 15972 ft | 304 kts | 291° |
| 2026-04-27 18:57 | 45.38267 | 6.46809 | 15808 ft | 303 kts | 290° |
| 2026-04-27 18:57 | 45.38790 | 6.43928 | 15643 ft | 301 kts | 275° |
| 2026-04-27 18:57 | 45.38710 | 6.40965 | 15490 ft | 299 kts | 262° |
| 2026-04-27 18:58 | 45.38386 | 6.38051 | 15334 ft | 298 kts | 260° |
| 2026-04-27 18:58 | 45.38145 | 6.36089 | 15238 ft | 298 kts | 260° |
| 2026-04-27 18:58 | 45.37784 | 6.33187 | 15070 ft | 299 kts | 260° |
| 2026-04-27 18:58 | 45.37426 | 6.30269 | 14908 ft | 299 kts | 260° |
| 2026-04-27 18:59 | 45.37073 | 6.27351 | 14747 ft | 299 kts | 260° |
| 2026-04-27 18:59 | 45.36728 | 6.24450 | 14572 ft | 298 kts | 260° |
| 2026-04-27 18:59 | 45.36385 | 6.21545 | 14422 ft | 297 kts | 260° |
| 2026-04-27 18:59 | 45.36045 | 6.18660 | 14275 ft | 296 kts | 260° |
| 2026-04-27 19:00 | 45.35707 | 6.15777 | 14105 ft | 296 kts | 260° |
| 2026-04-27 19:00 | 45.35367 | 6.12888 | 13941 ft | 296 kts | 260° |
| 2026-04-27 19:00 | 45.35029 | 6.10009 | 13779 ft | 296 kts | 260° |
| 2026-04-27 19:00 | 45.34689 | 6.07124 | 13585 ft | 295 kts | 260° |
| 2026-04-27 19:01 | 45.34352 | 6.04264 | 13436 ft | 293 kts | 260° |
| 2026-04-27 19:01 | 45.34015 | 6.01408 | 13254 ft | 292 kts | 259° |
| 2026-04-27 19:01 | 45.33679 | 5.98573 | 13118 ft | 290 kts | 259° |
| 2026-04-27 19:01 | 45.33344 | 5.95754 | 12961 ft | 289 kts | 259° |
| 2026-04-27 19:02 | 45.33008 | 5.92938 | 12806 ft | 288 kts | 259° |
| 2026-04-27 19:02 | 45.32667 | 5.90139 | 12652 ft | 287 kts | 259° |
| 2026-04-27 19:02 | 45.32326 | 5.87352 | 12499 ft | 286 kts | 259° |
| 2026-04-27 19:02 | 45.31984 | 5.84566 | 12362 ft | 286 kts | 259° |
| 2026-04-27 19:03 | 45.31647 | 5.81817 | 12216 ft | 286 kts | 259° |
| 2026-04-27 19:03 | 45.31299 | 5.78989 | 12059 ft | 287 kts | 259° |
| 2026-04-27 19:03 | 45.30955 | 5.76203 | 11901 ft | 285 kts | 259° |
| 2026-04-27 19:03 | 45.30730 | 5.74374 | 11814 ft | 285 kts | 259° |
| 2026-04-27 19:04 | 45.30273 | 5.70666 | 11598 ft | 284 kts | 259° |
| 2026-04-27 19:04 | 45.29943 | 5.67906 | 11461 ft | 283 kts | 259° |
| 2026-04-27 19:04 | 45.29614 | 5.65151 | 11310 ft | 283 kts | 259° |
| 2026-04-27 19:04 | 45.29281 | 5.62409 | 11161 ft | 282 kts | 259° |
| 2026-04-27 19:05 | 45.28942 | 5.59667 | 11011 ft | 282 kts | 259° |
| 2026-04-27 19:05 | 45.28626 | 5.56917 | 10855 ft | 281 kts | 265° |
| 2026-04-27 19:05 | 45.28905 | 5.54226 | 10701 ft | 282 kts | 291° |
| 2026-04-27 19:05 | 45.30009 | 5.51902 | 10559 ft | 284 kts | 316° |
| 2026-04-27 19:06 | 45.31676 | 5.50409 | 10416 ft | 286 kts | 338° |
| 2026-04-27 19:06 | 45.33579 | 5.49611 | 10271 ft | 286 kts | 343° |
| 2026-04-27 19:06 | 45.35376 | 5.48575 | 10091 ft | 280 kts | 322° |
| 2026-04-27 19:06 | 45.36659 | 5.46523 | 9772 ft | 275 kts | 297° |
| 2026-04-27 19:07 | 45.37413 | 5.44075 | 9459 ft | 272 kts | 290° |
| 2026-04-27 19:07 | 45.38100 | 5.41570 | 9124 ft | 272 kts | 290° |
| 2026-04-27 19:07 | 45.38784 | 5.39070 | 8799 ft | 271 kts | 291° |
| 2026-04-27 19:07 | 45.39476 | 5.36578 | 8476 ft | 271 kts | 291° |
| 2026-04-27 19:08 | 45.40169 | 5.34098 | 8164 ft | 270 kts | 291° |
| 2026-04-27 19:08 | 45.40865 | 5.31613 | 7855 ft | 269 kts | 291° |
| 2026-04-27 19:08 | 45.41558 | 5.29142 | 7535 ft | 269 kts | 291° |
| 2026-04-27 19:08 | 45.42251 | 5.26672 | 7219 ft | 269 kts | 291° |
| 2026-04-27 19:09 | 45.42943 | 5.24202 | 6902 ft | 268 kts | 292° |
| 2026-04-27 19:09 | 45.43633 | 5.21735 | 6590 ft | 268 kts | 292° |
| 2026-04-27 19:09 | 45.44321 | 5.19275 | 6263 ft | 268 kts | 292° |
| 2026-04-27 19:09 | 45.45006 | 5.16822 | 5917 ft | 265 kts | 292° |
| 2026-04-27 19:10 | 45.45774 | 5.14468 | 5597 ft | 259 kts | 308° |
| 2026-04-27 19:10 | 45.47175 | 5.13035 | 5421 ft | 246 kts | 341° |
| 2026-04-27 19:10 | 45.48817 | 5.12450 | 5128 ft | 241 kts | 347° |
| 2026-04-27 19:10 | 45.49905 | 5.12153 | 4917 ft | 238 kts | 351° |
| 2026-04-27 19:11 | 45.52074 | 5.11792 | 4501 ft | 232 kts | 355° |
| 2026-04-27 19:11 | 45.53663 | 5.11600 | 4199 ft | 227 kts | 355° |
| 2026-04-27 19:11 | 45.55202 | 5.11418 | 3907 ft | 217 kts | 355° |
| 2026-04-27 19:11 | 45.56685 | 5.11238 | 3639 ft | 209 kts | 355° |
| 2026-04-27 19:12 | 45.58099 | 5.11065 | 3371 ft | 200 kts | 355° |
| 2026-04-27 19:12 | 45.59454 | 5.10900 | 3108 ft | 190 kts | 355° |
| 2026-04-27 19:12 | 45.60741 | 5.10742 | 2866 ft | 181 kts | 355° |
| 2026-04-27 19:12 | 45.61962 | 5.10593 | 2617 ft | 172 kts | 355° |
| 2026-04-27 19:13 | 45.63109 | 5.10453 | 2415 ft | 159 kts | 355° |
| 2026-04-27 19:13 | 45.64175 | 5.10323 | 2228 ft | 151 kts | 355° |
| 2026-04-27 19:13 | 45.65216 | 5.10196 | 2015 ft | 148 kts | 355° |
| 2026-04-27 19:13 | 45.66243 | 5.10071 | 1828 ft | 148 kts | 355° |
| 2026-04-27 19:14 | 45.67253 | 5.09945 | 1629 ft | 146 kts | 355° |
| 2026-04-27 19:14 | 45.68292 | 5.09827 | 1436 ft | 151 kts | 355° |
| 2026-04-27 19:14 | 45.69342 | 5.09701 | 1231 ft | 154 kts | 355° |
| 2026-04-27 19:14 | 45.70423 | 5.09568 | 1016 ft | 156 kts | 355° |
| 2026-04-27 19:15 | 45.71488 | 5.09431 | 830 ft | 150 kts | 355° |
| 2026-04-27 19:15 | 45.72385 | 5.09323 | 807 ft | 100 kts | 356° |
| 2026-04-27 19:15 | 45.72859 | 5.09264 | 799 ft | 37 kts | 355° |
| 2026-04-27 19:15 | 45.72977 | 5.09165 | 797 ft | 12 kts | 276° |
| 2026-04-27 19:16 | 45.72972 | 5.09050 | 795 ft | 13 kts | 265° |
| 2026-04-27 19:16 | 45.72965 | 5.08954 | 794 ft | 16 kts | 264° |
| 2026-04-27 19:16 | 45.72953 | 5.08734 | 794 ft | 17 kts | 264° |
| 2026-04-27 19:16 | 45.72941 | 5.08550 | 793 ft | 20 kts | 266° |
| 2026-04-27 19:17 | 45.72897 | 5.08374 | 794 ft | 19 kts | 217° |
| 2026-04-27 19:17 | 45.72778 | 5.08358 | 795 ft | 17 kts | 175° |
| 2026-04-27 19:17 | 45.72660 | 5.08373 | 797 ft | 18 kts | 174° |
| 2026-04-27 19:17 | 45.72535 | 5.08388 | 799 ft | 19 kts | 174° |
| 2026-04-27 19:18 | 45.72408 | 5.08403 | 801 ft | 18 kts | 175° |
| 2026-04-27 19:18 | 45.72287 | 5.08407 | 803 ft | 14 kts | 203° |
| 2026-04-27 19:18 | 45.72232 | 5.08320 | 804 ft | 10 kts | 199° |
| 2026-04-27 19:18 | 45.72166 | 5.08293 | 805 ft | 10 kts | 237° |
| 2026-04-27 19:19 | 45.72170 | 5.08251 | 805 ft | 3 kts | 297° |
| 2026-04-27 19:19 | 45.72180 | 5.08224 | 805 ft | 3 kts | 296° |
| 2026-04-27 19:19 | 45.72184 | 5.08211 | 805 ft | 0 kts | 296° |